Terminal Aerodrome Forecast
Issued by NWS Charleston, WV

Current Version | Previous Version | Graphics & Text | Print | Product List | Glossary On
Versions: 1 2 3 4 5 6 7 8 9 10 11 12 13 14 15 16 17 18 19 20 21 22 23 24
000
FTUS41 KRLX 062116 AAA
TAFBKW
TAF AMD
KBKW 062116Z 0621/0718 13007KT P6SM -RA FEW008 OVC025
     FM070000 19007KT 4SM -RA OVC007
     FM070500 29010G16KT P6SM BKN007
     FM070800 30009KT P6SM BKN006
     FM071300 31006KT P6SM BKN015
     FM071600 30005KT P6SM SCT070=

USA.gov is the U.S. government's official web portal to all federal, state and local government web resources and services.